createdAt,value
2019-02-02T00:06:03.686Z,71.78
2019-02-02T00:12:09.772Z,71.84
2019-02-02T00:18:15.844Z,71.81
2019-02-02T00:24:21.923Z,71.56
2019-02-02T00:30:27.629Z,71.41
2019-02-02T00:36:33.442Z,71.44
2019-02-02T00:42:39.199Z,71.66
2019-02-02T00:48:45.021Z,71.52
2019-02-02T00:54:51.334Z,71.50
2019-02-02T01:00:58.856Z,71.48
2019-02-02T01:07:05.567Z,71.53
2019-02-02T01:13:11.416Z,71.71
2019-02-02T01:19:17.556Z,71.74
2019-02-02T01:25:23.435Z,71.94
2019-02-02T01:31:29.260Z,71.83
2019-02-02T01:37:35.040Z,71.71
2019-02-02T01:43:41.244Z,71.68
2019-02-02T01:49:47.305Z,71.56
2019-02-02T01:55:53.068Z,71.69
2019-02-02T02:01:59.250Z,71.50
2019-02-02T02:08:24.089Z,71.41
2019-02-02T02:14:30.517Z,71.35
2019-02-02T02:20:36.344Z,71.13
2019-02-02T02:26:42.259Z,70.91
2019-02-02T02:32:48.166Z,71.05
2019-02-02T02:38:54.089Z,70.81
2019-02-02T02:45:00.414Z,70.75
2019-02-02T02:51:06.366Z,70.66
2019-02-02T02:57:12.241Z,70.53
2019-02-02T03:03:18.529Z,70.17
2019-02-02T03:09:24.862Z,70.13
2019-02-02T03:15:31.294Z,69.96
2019-02-02T03:21:37.173Z,70.09
2019-02-02T03:27:42.970Z,70.12
2019-02-02T03:33:49.013Z,70.04
2019-02-02T03:39:54.755Z,69.96
2019-02-02T03:46:00.540Z,69.68
2019-02-02T03:52:06.301Z,69.87
2019-02-02T03:58:12.656Z,70.04
2019-02-02T04:04:18.403Z,69.98
2019-02-02T04:10:24.717Z,69.99
2019-02-02T04:16:31.068Z,70.04
2019-02-02T04:22:36.863Z,70.34
2019-02-02T04:28:42.768Z,70.54
2019-02-02T04:34:48.569Z,70.62
2019-02-02T04:40:54.894Z,70.91
2019-02-02T04:47:00.630Z,71.09
2019-02-02T04:53:06.583Z,71.21
2019-02-02T04:59:12.592Z,71.20
2019-02-02T05:05:18.601Z,71.11
2019-02-02T05:11:25.405Z,71.03
2019-02-02T05:17:31.822Z,71.04
2019-02-02T05:23:37.867Z,71.21
2019-02-02T05:29:43.571Z,71.37
2019-02-02T05:35:49.382Z,71.50
2019-02-02T05:41:55.476Z,71.38
2019-02-02T05:48:01.841Z,71.48
2019-02-02T05:54:07.645Z,71.72
2019-02-02T06:00:50.741Z,71.72
2019-02-02T06:06:56.749Z,71.62
2019-02-02T06:13:02.541Z,71.79
2019-02-02T06:19:08.476Z,72.16
2019-02-02T06:25:14.996Z,72.00
2019-02-02T06:31:20.983Z,71.88
2019-02-02T06:37:26.814Z,71.78
2019-02-02T06:43:32.875Z,71.69
2019-02-02T06:49:39.223Z,71.81
2019-02-02T06:55:45.326Z,71.85
2019-02-02T07:01:51.657Z,71.76
2019-02-02T07:07:57.742Z,71.68
2019-02-02T07:14:03.902Z,71.91
2019-02-02T07:20:12.598Z,71.85
2019-02-02T07:26:18.541Z,71.94
2019-02-02T07:32:24.440Z,72.02
2019-02-02T07:38:30.248Z,72.18
2019-02-02T07:44:36.137Z,72.25
2019-02-02T07:50:42.349Z,72.18
2019-02-02T07:56:48.498Z,72.07
2019-02-02T08:02:54.891Z,72.11
2019-02-02T08:09:00.578Z,72.36
2019-02-02T08:15:09.187Z,72.45
2019-02-02T08:21:15.823Z,72.42
2019-02-02T08:27:23.892Z,72.49
2019-02-02T08:33:32.592Z,72.37
2019-02-02T08:39:38.579Z,72.46
2019-02-02T08:45:44.498Z,72.41
2019-02-02T08:51:50.408Z,72.32
2019-02-02T08:57:58.350Z,71.95
2019-02-02T09:04:04.771Z,71.78
2019-02-02T09:10:15.224Z,71.54
2019-02-02T09:16:21.208Z,71.30
2019-02-02T09:22:27.332Z,71.15
2019-02-02T09:28:33.251Z,70.98
2019-02-02T09:34:39.496Z,71.12
2019-02-02T09:40:45.715Z,71.07
2019-02-02T09:46:51.894Z,71.31
2019-02-02T09:52:57.794Z,71.32
2019-02-02T09:59:03.643Z,71.18
2019-02-02T10:05:09.727Z,71.08
2019-02-02T10:11:15.589Z,70.99
2019-02-02T10:17:21.689Z,70.81
2019-02-02T10:23:27.605Z,70.52
2019-02-02T10:29:34.069Z,70.46
2019-02-02T10:35:39.970Z,70.47
2019-02-02T10:41:45.881Z,70.28
2019-02-02T10:47:52.132Z,70.04
2019-02-02T10:53:57.855Z,69.71
2019-02-02T11:00:03.671Z,70.43
2019-02-02T11:06:09.670Z,70.17
2019-02-02T11:12:15.819Z,70.15
2019-02-02T11:18:21.650Z,70.31
2019-02-02T11:24:27.762Z,70.41
2019-02-02T11:30:33.722Z,70.17
2019-02-02T11:36:39.873Z,70.04
2019-02-02T11:42:45.843Z,69.89
2019-02-02T11:48:51.546Z,69.91
2019-02-02T11:54:57.306Z,70.18
2019-02-02T12:01:03.384Z,70.28
2019-02-02T12:07:09.668Z,70.25
2019-02-02T12:13:16.596Z,70.19
2019-02-02T12:19:30.674Z,70.09
2019-02-02T12:25:36.626Z,70.15
2019-02-02T12:31:42.993Z,70.33
2019-02-02T12:37:49.437Z,70.39
2019-02-02T12:43:55.211Z,70.50
2019-02-02T12:50:01.255Z,70.42
2019-02-02T12:56:07.470Z,70.45
2019-02-02T13:02:13.320Z,70.40
2019-02-02T13:08:19.216Z,70.41
2019-02-02T13:14:24.942Z,70.28
2019-02-02T13:20:30.971Z,70.29
2019-02-02T13:26:37.075Z,70.30
2019-02-02T13:32:49.791Z,70.24
2019-02-02T13:38:50.921Z,70.24
2019-02-02T13:44:56.806Z,70.42
2019-02-02T13:51:02.568Z,70.39
2019-02-02T13:57:08.519Z,70.49
2019-02-02T14:03:14.254Z,70.58
2019-02-02T14:09:20.298Z,70.78
2019-02-02T14:15:26.053Z,70.90
2019-02-02T14:21:32.563Z,70.75
2019-02-02T14:27:38.733Z,71.07
2019-02-02T14:33:50.470Z,71.41
2019-02-02T14:39:56.760Z,71.47
2019-02-02T14:46:06.928Z,71.37
2019-02-02T14:52:12.792Z,71.30
2019-02-02T14:58:20.949Z,71.37
2019-02-02T15:04:26.811Z,71.22
2019-02-02T15:10:35.642Z,71.22
2019-02-02T15:16:41.510Z,71.35
2019-02-02T15:22:47.849Z,71.30
2019-02-02T15:28:55.146Z,71.45
2019-02-02T15:35:02.282Z,71.31
2019-02-02T15:41:08.021Z,71.30
2019-02-02T15:47:13.846Z,71.05
2019-02-02T15:53:19.613Z,71.21
2019-02-02T15:59:25.570Z,71.32
2019-02-02T16:05:33.561Z,71.18
2019-02-02T16:11:39.320Z,71.14
2019-02-02T16:17:45.168Z,70.86
2019-02-02T16:23:52.779Z,70.99
2019-02-02T16:29:58.576Z,71.09
2019-02-02T16:36:05.942Z,71.23
2019-02-02T16:42:11.635Z,71.19
2019-02-02T16:48:17.458Z,71.43
2019-02-02T16:54:23.356Z,71.52
2019-02-02T17:00:32.494Z,71.47
2019-02-02T17:06:38.468Z,71.41
2019-02-02T17:12:44.670Z,71.62
2019-02-02T17:18:50.726Z,71.49
2019-02-02T17:24:56.621Z,71.45
2019-02-02T17:31:02.460Z,71.38
2019-02-02T17:37:08.406Z,71.51
2019-02-02T17:43:14.280Z,71.41
2019-02-02T17:49:20.808Z,71.46
2019-02-02T17:55:26.759Z,71.31
2019-02-02T18:01:33.261Z,71.58
2019-02-02T18:07:39.443Z,71.66
2019-02-02T18:13:45.268Z,71.80
2019-02-02T18:19:51.654Z,71.80
2019-02-02T18:25:57.759Z,71.79
2019-02-02T18:32:12.701Z,71.77
2019-02-02T18:38:12.207Z,71.84
2019-02-02T18:44:20.513Z,72.10
2019-02-02T18:50:26.768Z,72.35
2019-02-02T18:56:33.890Z,72.58
2019-02-02T19:02:41.976Z,72.60
2019-02-02T19:08:48.170Z,72.75
2019-02-02T19:14:54.813Z,73.14
2019-02-02T19:21:00.764Z,73.14
2019-02-02T19:27:17.379Z,73.08
2019-02-02T19:33:26.170Z,69.61
2019-02-02T19:39:32.436Z,72.10
2019-02-02T19:45:38.243Z,72.84
2019-02-02T19:51:46.721Z,73.46
2019-02-02T19:57:53.345Z,73.64
2019-02-02T20:04:02.319Z,73.36
2019-02-02T20:10:11.469Z,73.55
2019-02-02T20:16:17.540Z,73.41
2019-02-02T20:22:23.674Z,73.37
2019-02-02T20:28:29.666Z,73.16
2019-02-02T20:34:38.599Z,73.03
2019-02-02T20:40:45.479Z,72.86
2019-02-02T20:46:51.578Z,72.71
2019-02-02T20:52:57.457Z,72.94
2019-02-02T20:59:03.530Z,72.74
2019-02-02T21:05:09.315Z,72.71
2019-02-02T21:11:15.330Z,72.57
2019-02-02T21:17:21.718Z,72.28
2019-02-02T21:23:27.676Z,72.36
2019-02-02T21:29:33.772Z,72.37
2019-02-02T21:35:40.272Z,72.30
2019-02-02T21:41:46.303Z,72.01
2019-02-02T21:47:52.197Z,72.13
2019-02-02T21:53:58.348Z,71.94
2019-02-02T22:00:04.657Z,72.16
2019-02-02T22:06:15.466Z,72.09
2019-02-02T22:12:18.199Z,72.06
2019-02-02T22:18:24.132Z,72.04
2019-02-02T22:24:30.795Z,72.30
2019-02-02T22:30:38.397Z,72.70
2019-02-02T22:36:44.728Z,72.98
2019-02-02T22:42:50.767Z,73.25
2019-02-02T22:48:56.704Z,73.87
2019-02-02T22:55:02.784Z,74.26
2019-02-02T23:01:36.710Z,74.15
2019-02-02T23:08:54.810Z,74.17
2019-02-02T23:16:13.364Z,74.04
2019-02-02T23:22:19.372Z,73.97
2019-02-02T23:28:25.237Z,73.73
2019-02-02T23:34:31.332Z,73.43
2019-02-02T23:40:37.130Z,73.42
2019-02-02T23:46:42.992Z,73.13
2019-02-02T23:52:48.859Z,73.08
2019-02-02T23:58:55.195Z,72.84
